Time;durP1;ratioP1;P1;durP2;ratioP2;P2;SDS_P1;SDS_P2;PMS_P1;PMS_P2;Temp;Humidity;BMP_temperature;BMP_pressure;BME280_temperature;BME280_humidity;BME280_pressure;Samples;Min_cycle;Max_cycle;Signal;HPM_P1;HPM_P2
2021/10/19 00:00:54;;;;;;;2.67;1.25;;;;;;;;;;2080297;28;20253;-79
2021/10/19 00:02:13;;;;;;;3.78;1.50;;;;;;;;;;2078852;28;20025;-78
2021/10/19 00:03:32;;;;;;;7.95;1.77;;;;;;;;;;2079614;28;20062;-79
2021/10/19 00:04:51;;;;;;;4.68;1.40;;;;;;;;;;2080002;28;20022;-79
2021/10/19 00:06:10;;;;;;;2.50;2.05;;;;;;;;;;2085983;28;20025;-77
2021/10/19 00:07:29;;;;;;;7.13;1.80;;;;;;;;;;2082005;28;20022;-80
2021/10/19 00:08:48;;;;;;;3.28;1.65;;;;;;;;;;2081456;28;20034;-78
2021/10/19 00:10:08;;;;;;;3.70;1.80;;;;;;;;;;2079512;28;20081;-80
2021/10/19 00:11:27;;;;;;;5.80;2.15;;;;;;;;;;2081151;28;20022;-78
2021/10/19 00:12:46;;;;;;;6.93;1.95;;;;;;;;;;2074772;28;20026;-78
2021/10/19 00:14:05;;;;;;;7.47;1.83;;;;;;;;;;2079125;28;20033;-79
2021/10/19 00:15:24;;;;;;;3.22;1.77;;;;;;;;;;2084882;28;20489;-80
2021/10/19 00:16:43;;;;;;;3.63;1.83;;;;;;;;;;2082108;28;20050;-79
2021/10/19 00:18:03;;;;;;;3.78;1.95;;;;;;;;;;2078585;28;20034;-80
2021/10/19 00:19:21;;;;;;;5.45;1.70;;;;;;;;;;2081152;28;20030;-79
2021/10/19 00:20:40;;;;;;;4.63;1.58;;;;;;;;;;2079856;28;20014;-80
2021/10/19 00:22:00;;;;;;;3.50;1.45;;;;;;;;;;2081156;28;20046;-80
2021/10/19 00:23:19;;;;;;;7.03;1.73;;;;;;;;;;2076743;28;20046;-79
2021/10/19 00:24:38;;;;;;;2.17;1.42;;;;;;;;;;2087757;28;20033;-78
2021/10/19 00:25:57;;;;;;;4.63;1.90;;;;;;;;;;2080567;28;20026;-76
2021/10/19 00:27:16;;;;;;;2.15;1.38;;;;;;;;;;2079314;28;20034;-77
2021/10/19 00:28:36;;;;;;;2.28;1.65;;;;;;;;;;2079267;28;20030;-78
2021/10/19 00:29:55;;;;;;;5.68;1.63;;;;;;;;;;2080987;28;20034;-78
2021/10/19 00:31:14;;;;;;;3.20;1.73;;;;;;;;;;2081638;28;20025;-78
2021/10/19 00:32:33;;;;;;;2.58;1.48;;;;;;;;;;2081753;28;20022;-78
2021/10/19 00:33:52;;;;;;;3.53;1.52;;;;;;;;;;2079143;28;20030;-78
2021/10/19 00:35:12;;;;;;;3.40;1.70;;;;;;;;;;2075944;28;20010;-77
2021/10/19 00:36:31;;;;;;;3.55;1.63;;;;;;;;;;2084878;28;20045;-77
2021/10/19 00:37:50;;;;;;;3.35;1.63;;;;;;;;;;2085486;28;20018;-79
2021/10/19 00:39:09;;;;;;;6.78;1.52;;;;;;;;;;2080881;28;20034;-78
2021/10/19 00:40:31;;;;;;;5.05;2.00;;;;;;;;;;2079612;28;20050;-78
2021/10/19 00:41:50;;;;;;;3.35;1.40;;;;;;;;;;2079676;28;20010;-76
2021/10/19 00:43:09;;;;;;;6.18;1.38;;;;;;;;;;2078882;28;20015;-79
2021/10/19 00:44:28;;;;;;;3.58;1.63;;;;;;;;;;2087972;28;20037;-80
2021/10/19 00:45:47;;;;;;;2.58;1.90;;;;;;;;;;2087247;28;20096;-78
2021/10/19 00:47:05;;;;;;;2.85;1.55;;;;;;;;;;2082317;28;20014;-80
2021/10/19 00:48:26;;;;;;;3.45;1.50;;;;;;;;;;2077095;28;20030;-79
2021/10/19 00:49:46;;;;;;;3.30;1.63;;;;;;;;;;2077498;28;20025;-77
2021/10/19 00:51:05;;;;;;;3.08;1.30;;;;;;;;;;2078677;28;20026;-79
2021/10/19 00:52:24;;;;;;;3.85;1.58;;;;;;;;;;2079435;28;20022;-79
2021/10/19 00:53:44;;;;;;;2.33;1.40;;;;;;;;;;2076715;28;20054;-79
2021/10/19 00:55:03;;;;;;;2.47;1.38;;;;;;;;;;2078771;28;20460;-80
2021/10/19 00:56:22;;;;;;;2.30;1.52;;;;;;;;;;2087712;28;20061;-80
2021/10/19 00:57:42;;;;;;;3.50;1.83;;;;;;;;;;2082295;28;20089;-77
2021/10/19 00:59:01;;;;;;;5.53;2.10;;;;;;;;;;2079305;28;20030;-79
2021/10/19 01:00:20;;;;;;;2.38;1.67;;;;;;;;;;2076780;28;20038;-80
2021/10/19 01:01:39;;;;;;;2.17;1.23;;;;;;;;;;2076634;28;20026;-80
2021/10/19 01:02:58;;;;;;;2.50;1.52;;;;;;;;;;2077107;28;20030;-80
2021/10/19 01:04:16;;;;;;;3.40;1.45;;;;;;;;;;2076911;28;20108;-81
2021/10/19 01:05:35;;;;;;;4.03;1.67;;;;;;;;;;2078734;28;20038;-79
2021/10/19 01:06:54;;;;;;;2.58;1.60;;;;;;;;;;2077191;28;20022;-80
2021/10/19 01:08:13;;;;;;;3.33;1.60;;;;;;;;;;2075938;28;20010;-81
2021/10/19 01:09:32;;;;;;;2.08;1.58;;;;;;;;;;2075629;28;20484;-77
2021/10/19 01:10:51;;;;;;;4.43;1.70;;;;;;;;;;2075841;28;20896;-77
2021/10/19 01:12:11;;;;;;;3.22;1.45;;;;;;;;;;2076574;28;20049;-79
2021/10/19 01:13:30;;;;;;;2.50;1.63;;;;;;;;;;2081450;28;20022;-80
2021/10/19 01:14:50;;;;;;;2.47;1.73;;;;;;;;;;2084447;28;20029;-79
2021/10/19 01:16:10;;;;;;;2.00;1.45;;;;;;;;;;2083580;28;20030;-80
2021/10/19 01:17:29;;;;;;;4.25;1.50;;;;;;;;;;2080666;28;20089;-80
2021/10/19 01:18:48;;;;;;;2.33;1.38;;;;;;;;;;2078994;28;20029;-80
2021/10/19 01:20:28;;;;;;;2.30;1.45;;;;;;;;;;2078862;28;20034;-77
2021/10/19 01:21:50;;;;;;;2.92;1.33;;;;;;;;;;2079692;28;20038;-79
2021/10/19 01:23:10;;;;;;;1.80;1.52;;;;;;;;;;2080656;28;20034;-80
2021/10/19 01:24:30;;;;;;;3.35;1.50;;;;;;;;;;2079323;28;20029;-80
2021/10/19 01:25:49;;;;;;;2.70;1.63;;;;;;;;;;2080828;28;20033;-78
2021/10/19 01:27:08;;;;;;;1.63;1.25;;;;;;;;;;2082330;28;20030;-81
2021/10/19 01:28:27;;;;;;;3.65;1.60;;;;;;;;;;2084243;28;20105;-80
2021/10/19 01:29:46;;;;;;;2.00;1.20;;;;;;;;;;2079284;28;20075;-82
2021/10/19 01:31:06;;;;;;;1.55;1.40;;;;;;;;;;2079553;28;20033;-79
2021/10/19 01:32:25;;;;;;;1.80;1.67;;;;;;;;;;2077795;28;20050;-80
2021/10/19 01:33:44;;;;;;;1.40;1.20;;;;;;;;;;2080959;28;20034;-78
2021/10/19 01:35:03;;;;;;;3.05;1.70;;;;;;;;;;2073946;28;20030;-77
2021/10/19 01:36:22;;;;;;;1.95;1.38;;;;;;;;;;2081765;28;20030;-78
2021/10/19 01:37:42;;;;;;;3.25;1.50;;;;;;;;;;2079979;28;20098;-79
2021/10/19 01:39:05;;;;;;;1.98;1.17;;;;;;;;;;2079060;28;20010;-77
2021/10/19 01:40:24;;;;;;;2.65;1.33;;;;;;;;;;2081514;28;20057;-80
2021/10/19 01:41:43;;;;;;;3.28;1.20;;;;;;;;;;2080466;28;20046;-78
2021/10/19 01:43:02;;;;;;;5.55;2.22;;;;;;;;;;2077577;28;20034;-79
2021/10/19 01:44:21;;;;;;;3.83;1.58;;;;;;;;;;2077953;28;20034;-77
2021/10/19 01:45:41;;;;;;;2.30;1.58;;;;;;;;;;2075684;28;20037;-78
2021/10/19 01:47:00;;;;;;;1.52;1.23;;;;;;;;;;2079540;28;20037;-78
2021/10/19 01:48:19;;;;;;;2.42;1.40;;;;;;;;;;2078038;28;20030;-78
2021/10/19 01:49:38;;;;;;;4.32;1.30;;;;;;;;;;2078580;28;20552;-78
2021/10/19 01:50:57;;;;;;;1.50;1.23;;;;;;;;;;2078154;28;20707;-79
2021/10/19 01:52:16;;;;;;;1.95;1.30;;;;;;;;;;2078776;28;20059;-77
2021/10/19 01:53:35;;;;;;;2.38;1.45;;;;;;;;;;2079829;28;20014;-80
2021/10/19 01:54:55;;;;;;;1.63;1.25;;;;;;;;;;2085029;28;20033;-79
2021/10/19 01:56:13;;;;;;;4.10;1.58;;;;;;;;;;2079960;28;20021;-80
2021/10/19 01:57:32;;;;;;;1.67;1.58;;;;;;;;;;2080422;28;20025;-78
2021/10/19 01:58:52;;;;;;;2.15;1.52;;;;;;;;;;2081936;28;20018;-78
2021/10/19 02:00:11;;;;;;;2.60;1.80;;;;;;;;;;2079747;28;20014;-79
2021/10/19 02:01:30;;;;;;;1.92;1.60;;;;;;;;;;2081371;28;20041;-76
2021/10/19 02:02:49;;;;;;;1.95;1.30;;;;;;;;;;2082554;28;20021;-77
2021/10/19 02:04:08;;;;;;;1.67;1.58;;;;;;;;;;2077132;28;20022;-79
2021/10/19 02:05:26;;;;;;;2.08;1.20;;;;;;;;;;2076031;28;20504;-78
2021/10/19 02:06:45;;;;;;;2.92;1.35;;;;;;;;;;2085905;28;20017;-79
2021/10/19 02:08:05;;;;;;;2.30;1.40;;;;;;;;;;2081650;28;20754;-76
2021/10/19 02:09:24;;;;;;;1.83;1.45;;;;;;;;;;2084643;28;20029;-77
2021/10/19 02:10:42;;;;;;;2.55;1.30;;;;;;;;;;2083199;28;20034;-78
2021/10/19 02:12:02;;;;;;;2.17;1.27;;;;;;;;;;2076826;28;20117;-79
2021/10/19 02:13:20;;;;;;;1.85;1.63;;;;;;;;;;2077663;28;20036;-77
2021/10/19 02:14:40;;;;;;;1.90;1.48;;;;;;;;;;2080973;28;20041;-75
2021/10/19 02:15:59;;;;;;;5.68;1.95;;;;;;;;;;2082420;28;20026;-77
2021/10/19 02:17:18;;;;;;;1.67;1.27;;;;;;;;;;2081111;28;20034;-75
2021/10/19 02:18:37;;;;;;;2.63;2.10;;;;;;;;;;2080267;28;20021;-79
2021/10/19 02:20:00;;;;;;;1.60;1.50;;;;;;;;;;2081516;28;20013;-76
2021/10/19 02:21:19;;;;;;;2.58;1.48;;;;;;;;;;2082398;28;20030;-76
2021/10/19 02:22:38;;;;;;;5.78;1.70;;;;;;;;;;2078859;28;20017;-76
2021/10/19 02:23:57;;;;;;;3.05;1.60;;;;;;;;;;2077680;28;20150;-78
2021/10/19 02:25:16;;;;;;;5.03;1.75;;;;;;;;;;2080199;28;20054;-78
2021/10/19 02:26:35;;;;;;;2.78;1.65;;;;;;;;;;2079879;28;20038;-77
2021/10/19 02:27:54;;;;;;;2.60;1.50;;;;;;;;;;2079093;28;20037;-78
2021/10/19 02:29:14;;;;;;;1.98;1.60;;;;;;;;;;2080863;28;20129;-83
2021/10/19 02:30:34;;;;;;;2.88;1.30;;;;;;;;;;2082052;28;20042;-76
2021/10/19 02:31:53;;;;;;;4.78;1.90;;;;;;;;;;2080424;28;20038;-75
2021/10/19 02:33:12;;;;;;;4.32;1.73;;;;;;;;;;2078531;28;20033;-77
2021/10/19 02:34:31;;;;;;;1.70;1.52;;;;;;;;;;2080239;28;20041;-77
2021/10/19 02:35:50;;;;;;;2.83;1.48;;;;;;;;;;2081000;28;20013;-76
2021/10/19 02:37:09;;;;;;;3.95;1.58;;;;;;;;;;2081693;28;20033;-78
2021/10/19 02:38:28;;;;;;;2.55;1.60;;;;;;;;;;2079401;28;20010;-77
2021/10/19 02:39:47;;;;;;;2.08;1.65;;;;;;;;;;2080012;28;20417;-77
2021/10/19 02:41:06;;;;;;;2.67;1.63;;;;;;;;;;2081380;28;20014;-77
2021/10/19 02:42:25;;;;;;;2.83;1.30;;;;;;;;;;2081707;28;20029;-78
2021/10/19 02:43:44;;;;;;;2.40;1.63;;;;;;;;;;2085065;28;20057;-76
2021/10/19 02:45:04;;;;;;;3.70;1.70;;;;;;;;;;2080322;28;20026;-75
2021/10/19 02:46:24;;;;;;;3.13;1.42;;;;;;;;;;2082048;28;20022;-77
2021/10/19 02:47:43;;;;;;;3.00;1.70;;;;;;;;;;2082631;28;20030;-76
2021/10/19 02:49:03;;;;;;;6.22;1.60;;;;;;;;;;2081926;28;20030;-77
2021/10/19 02:50:22;;;;;;;3.50;1.63;;;;;;;;;;2080015;28;20034;-78
2021/10/19 02:51:42;;;;;;;3.40;1.60;;;;;;;;;;2086801;28;20029;-78
2021/10/19 02:53:01;;;;;;;3.08;1.35;;;;;;;;;;2080842;28;20042;-76
2021/10/19 02:54:20;;;;;;;5.00;2.33;;;;;;;;;;2078501;28;20018;-79
2021/10/19 02:55:39;;;;;;;2.60;1.67;;;;;;;;;;2078319;28;20030;-79
2021/10/19 02:56:58;;;;;;;2.58;1.30;;;;;;;;;;2084947;28;20021;-77
2021/10/19 02:58:17;;;;;;;3.05;2.05;;;;;;;;;;2086662;28;20018;-77
2021/10/19 02:59:36;;;;;;;1.92;1.60;;;;;;;;;;2077776;28;20034;-77
2021/10/19 03:00:55;;;;;;;4.60;1.63;;;;;;;;;;2079490;28;20038;-77
2021/10/19 03:02:14;;;;;;;3.13;1.70;;;;;;;;;;2088435;28;20037;-76
2021/10/19 03:03:33;;;;;;;1.25;1.13;;;;;;;;;;2083980;28;20397;-78
2021/10/19 03:04:51;;;;;;;3.33;1.95;;;;;;;;;;2079597;28;20093;-77
2021/10/19 03:06:11;;;;;;;2.35;1.50;;;;;;;;;;2079749;28;20034;-77
2021/10/19 03:07:30;;;;;;;2.55;1.33;;;;;;;;;;2080867;28;20021;-77
2021/10/19 03:08:49;;;;;;;4.78;1.40;;;;;;;;;;2080187;28;20085;-78
2021/10/19 03:10:08;;;;;;;3.40;1.45;;;;;;;;;;2075930;28;20014;-76
2021/10/19 03:11:27;;;;;;;3.90;1.30;;;;;;;;;;2086038;28;20017;-76
2021/10/19 03:12:46;;;;;;;2.20;1.25;;;;;;;;;;2083434;28;20030;-76
2021/10/19 03:14:05;;;;;;;3.40;1.85;;;;;;;;;;2089244;28;20025;-76
2021/10/19 03:15:25;;;;;;;5.72;2.25;;;;;;;;;;2091375;28;20025;-77
2021/10/19 03:16:44;;;;;;;2.13;1.70;;;;;;;;;;2083024;28;20018;-76
2021/10/19 03:18:03;;;;;;;1.60;1.50;;;;;;;;;;2081412;28;20018;-76
2021/10/19 03:19:23;;;;;;;3.17;1.95;;;;;;;;;;2082607;28;20022;-77
2021/10/19 03:20:42;;;;;;;3.80;1.80;;;;;;;;;;2082000;28;20046;-76
2021/10/19 03:22:01;;;;;;;4.13;2.05;;;;;;;;;;2078975;28;20009;-78
2021/10/19 03:23:20;;;;;;;2.92;1.95;;;;;;;;;;2078433;28;20030;-76
2021/10/19 03:24:39;;;;;;;1.75;1.65;;;;;;;;;;2076642;28;20014;-76
2021/10/19 03:25:58;;;;;;;4.68;2.50;;;;;;;;;;2083793;28;20065;-74
2021/10/19 03:27:17;;;;;;;4.57;2.10;;;;;;;;;;2081994;28;20029;-77
2021/10/19 03:28:36;;;;;;;4.25;2.20;;;;;;;;;;2085993;28;20033;-77
2021/10/19 03:29:56;;;;;;;2.92;2.05;;;;;;;;;;2083832;28;20030;-76
2021/10/19 03:31:18;;;;;;;2.92;2.20;;;;;;;;;;2079029;28;20053;-77
2021/10/19 03:32:37;;;;;;;2.72;2.08;;;;;;;;;;2089046;28;20029;-75
2021/10/19 03:33:57;;;;;;;3.83;2.30;;;;;;;;;;2081404;28;20034;-76
2021/10/19 03:35:15;;;;;;;2.90;2.00;;;;;;;;;;2086492;28;20026;-78
2021/10/19 03:36:34;;;;;;;5.70;2.70;;;;;;;;;;2078754;28;20030;-76
2021/10/19 03:37:54;;;;;;;2.80;2.28;;;;;;;;;;2088282;28;20032;-76
2021/10/19 03:39:13;;;;;;;4.60;1.80;;;;;;;;;;2079752;28;20033;-79
2021/10/19 03:40:32;;;;;;;3.70;2.45;;;;;;;;;;2080943;28;20026;-76
2021/10/19 03:41:51;;;;;;;2.83;2.25;;;;;;;;;;2079196;28;20029;-78
2021/10/19 03:43:10;;;;;;;3.75;2.40;;;;;;;;;;2083072;28;20018;-77
2021/10/19 03:44:29;;;;;;;3.50;2.50;;;;;;;;;;2079468;28;20086;-76
2021/10/19 03:45:48;;;;;;;2.92;2.63;;;;;;;;;;2080509;28;20042;-76
2021/10/19 03:47:07;;;;;;;3.15;2.38;;;;;;;;;;2077221;28;20034;-76
2021/10/19 03:48:26;;;;;;;4.28;2.22;;;;;;;;;;2081889;28;20029;-78
2021/10/19 03:49:46;;;;;;;2.63;1.90;;;;;;;;;;2079727;28;20030;-79
2021/10/19 03:51:05;;;;;;;4.10;2.72;;;;;;;;;;2081308;28;20034;-79
2021/10/19 03:52:23;;;;;;;4.95;2.10;;;;;;;;;;2080310;28;20034;-77
2021/10/19 03:53:43;;;;;;;3.75;2.13;;;;;;;;;;2079994;28;20025;-77
2021/10/19 03:55:03;;;;;;;3.15;2.72;;;;;;;;;;2085335;28;20025;-78
2021/10/19 03:56:22;;;;;;;4.38;2.35;;;;;;;;;;2080600;28;20064;-76
2021/10/19 03:57:41;;;;;;;3.95;1.90;;;;;;;;;;2077100;28;20026;-78
2021/10/19 03:58:59;;;;;;;3.13;1.90;;;;;;;;;;2077945;28;20014;-77
2021/10/19 04:00:19;;;;;;;4.68;2.10;;;;;;;;;;2079662;28;20033;-77
2021/10/19 04:01:38;;;;;;;2.83;2.60;;;;;;;;;;2080441;28;20093;-76
2021/10/19 04:02:57;;;;;;;3.50;2.13;;;;;;;;;;2081444;28;20017;-77
2021/10/19 04:04:16;;;;;;;3.75;2.15;;;;;;;;;;2080696;28;20013;-78
2021/10/19 04:05:35;;;;;;;2.22;2.03;;;;;;;;;;2075942;28;20018;-78
2021/10/19 04:06:55;;;;;;;3.03;2.15;;;;;;;;;;2076876;28;20224;-77
2021/10/19 04:08:14;;;;;;;3.10;2.05;;;;;;;;;;2078789;28;20034;-76
2021/10/19 04:09:33;;;;;;;4.25;1.90;;;;;;;;;;2080463;28;20041;-76
2021/10/19 04:10:52;;;;;;;4.32;2.08;;;;;;;;;;2081150;28;20065;-75
2021/10/19 04:12:11;;;;;;;2.85;2.20;;;;;;;;;;2080327;28;20018;-76
2021/10/19 04:13:30;;;;;;;5.75;2.00;;;;;;;;;;2088781;28;20022;-77
2021/10/19 04:14:49;;;;;;;3.83;2.38;;;;;;;;;;2091603;28;20049;-77
2021/10/19 04:16:08;;;;;;;3.03;1.95;;;;;;;;;;2091804;28;20018;-77
2021/10/19 04:17:28;;;;;;;2.13;1.85;;;;;;;;;;2082538;28;20014;-76
2021/10/19 04:18:46;;;;;;;2.72;1.90;;;;;;;;;;2083046;28;20026;-76
2021/10/19 04:20:06;;;;;;;3.53;2.15;;;;;;;;;;2082394;28;20085;-77
2021/10/19 04:21:25;;;;;;;2.83;2.20;;;;;;;;;;2090323;28;20037;-77
2021/10/19 04:22:44;;;;;;;3.58;2.00;;;;;;;;;;2084048;28;20050;-79
2021/10/19 04:24:03;;;;;;;3.00;2.10;;;;;;;;;;2078342;28;20035;-77
2021/10/19 04:25:22;;;;;;;4.80;1.95;;;;;;;;;;2081951;28;20057;-79
2021/10/19 04:26:43;;;;;;;4.82;2.30;;;;;;;;;;2082522;28;20018;-80
2021/10/19 04:28:02;;;;;;;5.63;1.88;;;;;;;;;;2082203;28;20025;-79
2021/10/19 04:29:21;;;;;;;4.60;1.85;;;;;;;;;;2081116;28;20297;-81
2021/10/19 04:30:40;;;;;;;3.75;2.20;;;;;;;;;;2079948;28;20022;-80
2021/10/19 04:31:59;;;;;;;2.33;1.63;;;;;;;;;;2082256;28;20006;-79
2021/10/19 04:33:18;;;;;;;2.65;1.65;;;;;;;;;;2081868;28;20014;-76
2021/10/19 04:34:37;;;;;;;2.85;1.80;;;;;;;;;;2088287;28;20018;-79
2021/10/19 04:35:56;;;;;;;2.45;1.73;;;;;;;;;;2079514;28;20022;-77
2021/10/19 04:37:15;;;;;;;2.25;1.77;;;;;;;;;;2075884;28;20018;-79
2021/10/19 04:38:35;;;;;;;4.03;1.80;;;;;;;;;;2081606;28;20026;-80
2021/10/19 04:39:54;;;;;;;3.58;2.20;;;;;;;;;;2078372;28;20037;-79
2021/10/19 04:41:13;;;;;;;4.00;1.75;;;;;;;;;;2080907;28;20049;-76
2021/10/19 04:42:33;;;;;;;4.15;2.00;;;;;;;;;;2081270;28;20033;-76
2021/10/19 04:43:52;;;;;;;2.90;1.85;;;;;;;;;;2082095;28;20085;-76
2021/10/19 04:45:12;;;;;;;3.70;1.80;;;;;;;;;;2081302;28;20026;-79
2021/10/19 04:46:32;;;;;;;3.47;2.05;;;;;;;;;;2081547;28;20631;-79
2021/10/19 04:47:51;;;;;;;5.65;1.70;;;;;;;;;;2075037;28;20026;-79
2021/10/19 04:49:09;;;;;;;4.30;2.03;;;;;;;;;;2075965;28;20074;-79
2021/10/19 04:50:29;;;;;;;3.03;2.03;;;;;;;;;;2075321;28;20034;-78
2021/10/19 04:51:48;;;;;;;4.32;2.22;;;;;;;;;;2073499;28;20995;-77
2021/10/19 04:53:07;;;;;;;4.32;1.85;;;;;;;;;;2071968;28;20025;-79
2021/10/19 04:54:26;;;;;;;1.88;1.77;;;;;;;;;;2072470;28;20037;-80
2021/10/19 04:55:47;;;;;;;3.05;1.63;;;;;;;;;;2072685;28;20038;-80
2021/10/19 04:57:06;;;;;;;2.55;1.75;;;;;;;;;;2079404;28;20037;-77
2021/10/19 04:58:25;;;;;;;3.97;1.90;;;;;;;;;;2073526;28;20041;-78
2021/10/19 04:59:44;;;;;;;3.75;1.25;;;;;;;;;;2072426;28;20050;-80
2021/10/19 05:01:03;;;;;;;3.00;1.73;;;;;;;;;;2072754;28;20424;-84
2021/10/19 05:02:22;;;;;;;4.65;1.80;;;;;;;;;;2081379;28;20152;-79
2021/10/19 05:03:46;;;;;;;2.80;1.80;;;;;;;;;;2080577;28;20497;-79
2021/10/19 05:05:05;;;;;;;2.33;1.73;;;;;;;;;;2073336;28;20030;-81
2021/10/19 05:06:24;;;;;;;1.90;1.50;;;;;;;;;;2072053;28;20049;-79
2021/10/19 05:07:43;;;;;;;3.80;2.15;;;;;;;;;;2074748;28;20021;-82
2021/10/19 05:09:02;;;;;;;2.95;1.73;;;;;;;;;;2069990;28;20463;-77
2021/10/19 05:10:21;;;;;;;3.85;2.13;;;;;;;;;;2077771;28;20022;-78
2021/10/19 05:11:40;;;;;;;5.07;1.70;;;;;;;;;;2068305;28;20498;-77
2021/10/19 05:12:58;;;;;;;2.47;1.60;;;;;;;;;;2075111;28;20441;-78
2021/10/19 05:14:17;;;;;;;4.30;2.30;;;;;;;;;;2073838;28;20033;-81
2021/10/19 05:15:36;;;;;;;3.53;1.70;;;;;;;;;;2078445;28;20618;-83
2021/10/19 05:16:55;;;;;;;5.80;1.80;;;;;;;;;;2079812;28;20034;-82
2021/10/19 05:18:14;;;;;;;3.40;1.90;;;;;;;;;;2073431;28;20528;-82
2021/10/19 05:19:32;;;;;;;2.15;1.38;;;;;;;;;;2072983;28;20037;-80
2021/10/19 05:20:52;;;;;;;3.22;1.50;;;;;;;;;;2073729;28;20026;-79
2021/10/19 05:22:11;;;;;;;4.63;2.05;;;;;;;;;;2071177;28;20073;-80
2021/10/19 05:23:29;;;;;;;3.30;1.77;;;;;;;;;;2081231;28;20494;-79
2021/10/19 05:24:48;;;;;;;4.00;1.75;;;;;;;;;;2075362;28;20038;-78
2021/10/19 05:26:09;;;;;;;2.85;1.80;;;;;;;;;;2071692;28;20041;-81
2021/10/19 05:27:28;;;;;;;3.67;1.77;;;;;;;;;;2077850;28;20026;-81
2021/10/19 05:28:47;;;;;;;7.35;1.60;;;;;;;;;;2074765;28;20052;-80
2021/10/19 05:30:06;;;;;;;2.10;1.27;;;;;;;;;;2066163;28;20034;-79
2021/10/19 05:31:26;;;;;;;3.25;1.35;;;;;;;;;;2070476;28;20090;-81
2021/10/19 05:32:44;;;;;;;2.47;1.60;;;;;;;;;;2065718;28;20081;-77
2021/10/19 05:34:03;;;;;;;3.83;1.88;;;;;;;;;;2068700;28;20038;-79
2021/10/19 05:35:22;;;;;;;5.00;1.75;;;;;;;;;;2072135;28;20117;-80
2021/10/19 05:36:41;;;;;;;4.72;1.50;;;;;;;;;;2070368;28;20781;-81
2021/10/19 05:38:00;;;;;;;3.22;1.60;;;;;;;;;;2070478;28;20026;-81
2021/10/19 05:39:19;;;;;;;3.65;1.35;;;;;;;;;;2070168;28;20030;-81
2021/10/19 05:40:38;;;;;;;5.35;1.38;;;;;;;;;;2071610;28;20034;-82
2021/10/19 05:41:59;;;;;;;2.97;1.40;;;;;;;;;;2065397;28;20033;-83
2021/10/19 05:43:18;;;;;;;2.47;1.50;;;;;;;;;;2069939;28;20017;-80
2021/10/19 05:44:36;;;;;;;3.40;1.55;;;;;;;;;;2072896;28;20025;-81
2021/10/19 05:45:55;;;;;;;2.65;1.73;;;;;;;;;;2071080;28;20021;-82
2021/10/19 05:47:14;;;;;;;4.60;1.77;;;;;;;;;;2074315;28;20382;-83
2021/10/19 05:48:33;;;;;;;4.18;1.45;;;;;;;;;;2072332;28;20021;-81
2021/10/19 05:49:52;;;;;;;3.58;1.48;;;;;;;;;;2072411;28;20478;-81
2021/10/19 05:51:11;;;;;;;2.15;1.55;;;;;;;;;;2072681;28;20406;-83
2021/10/19 05:52:30;;;;;;;1.80;1.50;;;;;;;;;;2072923;28;20446;-81
2021/10/19 05:53:50;;;;;;;3.13;1.50;;;;;;;;;;2073172;28;20038;-82
2021/10/19 05:55:09;;;;;;;3.63;1.80;;;;;;;;;;2073348;28;20445;-81
2021/10/19 05:56:28;;;;;;;2.33;1.30;;;;;;;;;;2071068;28;20042;-78
2021/10/19 05:57:47;;;;;;;4.78;1.55;;;;;;;;;;2071269;28;20030;-80
2021/10/19 05:59:05;;;;;;;2.15;1.33;;;;;;;;;;2066840;28;20046;-82
2021/10/19 06:00:24;;;;;;;1.58;1.48;;;;;;;;;;2073087;28;20655;-82
2021/10/19 06:01:43;;;;;;;8.35;1.50;;;;;;;;;;2072686;28;20026;-81
2021/10/19 06:03:02;;;;;;;2.58;1.60;;;;;;;;;;2074994;28;20049;-82
2021/10/19 06:04:21;;;;;;;2.80;1.40;;;;;;;;;;2071867;28;20365;-87
2021/10/19 06:05:41;;;;;;;3.65;1.40;;;;;;;;;;2074548;28;20026;-86
2021/10/19 06:07:01;;;;;;;5.40;1.77;;;;;;;;;;2071954;28;20510;-83
2021/10/19 06:08:20;;;;;;;6.07;1.70;;;;;;;;;;2067652;28;20545;-81
2021/10/19 06:09:39;;;;;;;4.93;1.83;;;;;;;;;;2067914;28;20039;-78
2021/10/19 06:10:59;;;;;;;2.63;1.40;;;;;;;;;;2069073;28;20041;-79
2021/10/19 06:12:17;;;;;;;4.07;1.30;;;;;;;;;;2077677;28;20108;-80
2021/10/19 06:13:37;;;;;;;2.65;1.30;;;;;;;;;;2079500;28;20026;-81
2021/10/19 06:14:56;;;;;;;3.58;1.60;;;;;;;;;;2072176;28;20026;-81
2021/10/19 06:16:15;;;;;;;4.55;1.98;;;;;;;;;;2069601;28;20026;-80
2021/10/19 06:17:34;;;;;;;3.25;1.80;;;;;;;;;;2080981;28;20107;-80
2021/10/19 06:18:52;;;;;;;3.75;1.55;;;;;;;;;;2071897;28;20026;-80
2021/10/19 06:20:12;;;;;;;3.83;1.50;;;;;;;;;;2069223;28;20407;-80
2021/10/19 06:21:31;;;;;;;3.67;1.50;;;;;;;;;;2071526;28;20038;-80
2021/10/19 06:22:50;;;;;;;3.03;1.88;;;;;;;;;;2068069;28;20022;-81
2021/10/19 06:24:09;;;;;;;3.40;1.60;;;;;;;;;;2071487;28;20022;-81
2021/10/19 06:25:28;;;;;;;2.78;1.63;;;;;;;;;;2070825;28;20136;-82
2021/10/19 06:26:47;;;;;;;3.58;1.48;;;;;;;;;;2068972;28;20065;-81
2021/10/19 06:28:06;;;;;;;2.67;1.60;;;;;;;;;;2077104;28;20025;-82
2021/10/19 06:29:26;;;;;;;4.10;1.92;;;;;;;;;;2075145;28;20034;-80
2021/10/19 06:30:46;;;;;;;3.72;1.40;;;;;;;;;;2079576;28;20037;-77
2021/10/19 06:32:04;;;;;;;5.63;1.63;;;;;;;;;;2074969;28;21021;-82
2021/10/19 06:33:23;;;;;;;2.35;1.52;;;;;;;;;;2071290;28;20109;-84
2021/10/19 06:34:42;;;;;;;3.38;1.55;;;;;;;;;;2071256;28;20038;-86
2021/10/19 06:36:02;;;;;;;2.22;1.50;;;;;;;;;;2076531;28;20033;-81
2021/10/19 06:37:20;;;;;;;5.20;1.92;;;;;;;;;;2075499;28;20034;-84
2021/10/19 06:38:39;;;;;;;5.75;2.03;;;;;;;;;;2071802;28;20030;-81
2021/10/19 06:39:58;;;;;;;2.72;1.65;;;;;;;;;;2069423;28;20026;-82
2021/10/19 06:41:17;;;;;;;4.18;1.92;;;;;;;;;;2068566;28;20018;-83
2021/10/19 06:42:36;;;;;;;2.15;1.80;;;;;;;;;;2069974;28;20030;-82
2021/10/19 06:43:55;;;;;;;3.80;1.50;;;;;;;;;;2075670;28;20033;-85
2021/10/19 06:45:14;;;;;;;4.57;1.42;;;;;;;;;;2072752;28;20062;-82
2021/10/19 06:46:33;;;;;;;2.00;1.42;;;;;;;;;;2075219;28;20065;-83
2021/10/19 06:47:52;;;;;;;5.70;1.63;;;;;;;;;;2071717;28;20026;-81
2021/10/19 06:49:12;;;;;;;7.88;1.92;;;;;;;;;;2076346;28;20021;-80
2021/10/19 06:50:32;;;;;;;4.72;1.98;;;;;;;;;;2079988;28;20030;-83
2021/10/19 06:51:52;;;;;;;3.42;1.40;;;;;;;;;;2074710;28;20057;-79
2021/10/19 06:53:11;;;;;;;2.47;1.40;;;;;;;;;;2071786;28;20038;-87
2021/10/19 06:54:29;;;;;;;2.42;1.65;;;;;;;;;;2070543;28;20394;-88
2021/10/19 06:55:48;;;;;;;3.03;1.63;;;;;;;;;;2070360;28;20034;-89
2021/10/19 06:57:07;;;;;;;1.95;1.50;;;;;;;;;;2072463;28;20029;-83
2021/10/19 06:58:26;;;;;;;4.45;1.42;;;;;;;;;;2071734;28;20034;-83
2021/10/19 06:59:46;;;;;;;3.58;1.50;;;;;;;;;;2072101;28;20494;-84
2021/10/19 07:01:05;;;;;;;3.72;1.55;;;;;;;;;;2070735;28;20034;-84
2021/10/19 07:02:24;;;;;;;2.72;1.38;;;;;;;;;;2069043;28;20018;-82
2021/10/19 07:03:43;;;;;;;2.28;1.67;;;;;;;;;;2077089;28;20034;-82
2021/10/19 07:05:02;;;;;;;2.30;1.05;;;;;;;;;;2077626;28;20033;-84
2021/10/19 07:06:21;;;;;;;4.95;1.58;;;;;;;;;;2071634;28;20050;-82
2021/10/19 07:07:41;;;;;;;3.53;1.50;;;;;;;;;;2069608;28;20030;-80
2021/10/19 07:09:00;;;;;;;3.00;1.23;;;;;;;;;;2071675;28;20030;-85
2021/10/19 07:10:20;;;;;;;2.75;1.50;;;;;;;;;;2074652;28;20494;-83
2021/10/19 07:11:39;;;;;;;4.15;1.40;;;;;;;;;;2072875;28;20038;-81
2021/10/19 07:12:58;;;;;;;1.85;1.10;;;;;;;;;;2074212;28;20030;-81
2021/10/19 07:14:17;;;;;;;5.95;1.60;;;;;;;;;;2071220;28;20066;-80
2021/10/19 07:15:36;;;;;;;1.98;1.30;;;;;;;;;;2070921;28;20026;-82
2021/10/19 07:16:55;;;;;;;4.40;1.50;;;;;;;;;;2072307;28;20701;-84
2021/10/19 07:18:14;;;;;;;2.13;1.33;;;;;;;;;;2071711;28;20042;-83
2021/10/19 07:19:36;;;;;;;2.78;1.20;;;;;;;;;;2078114;28;20033;-82
2021/10/19 07:20:55;;;;;;;3.42;1.20;;;;;;;;;;2073646;28;20030;-82
2021/10/19 07:22:14;;;;;;;3.65;1.50;;;;;;;;;;2081001;28;21303;-83
2021/10/19 07:23:33;;;;;;;1.38;1.10;;;;;;;;;;2073202;28;20030;-83
2021/10/19 07:24:52;;;;;;;3.70;1.38;;;;;;;;;;2073234;28;20490;-80
2021/10/19 07:26:13;;;;;;;3.33;1.27;;;;;;;;;;2074741;28;20034;-80
2021/10/19 07:27:32;;;;;;;2.53;1.48;;;;;;;;;;2073672;28;20105;-83
2021/10/19 07:28:51;;;;;;;2.85;1.50;;;;;;;;;;2074567;28;20042;-83
2021/10/19 07:30:11;;;;;;;1.92;1.20;;;;;;;;;;2082416;28;20033;-84
2021/10/19 07:31:30;;;;;;;3.30;1.52;;;;;;;;;;2072815;28;20038;-83
2021/10/19 07:32:48;;;;;;;4.85;1.95;;;;;;;;;;2068312;28;20026;-83
2021/10/19 07:34:08;;;;;;;4.15;1.45;;;;;;;;;;2077454;28;20033;-83
2021/10/19 07:35:27;;;;;;;2.42;1.42;;;;;;;;;;2076730;28;20125;-83
2021/10/19 07:36:46;;;;;;;4.22;1.90;;;;;;;;;;2075303;28;20033;-82
2021/10/19 07:38:06;;;;;;;5.78;1.52;;;;;;;;;;2073228;28;20121;-83
2021/10/19 07:39:25;;;;;;;3.78;1.20;;;;;;;;;;2073714;28;20026;-81
2021/10/19 07:40:44;;;;;;;3.10;1.40;;;;;;;;;;2078225;28;20032;-81
2021/10/19 07:42:03;;;;;;;2.67;1.45;;;;;;;;;;2077866;28;20482;-81
2021/10/19 07:43:22;;;;;;;4.47;1.58;;;;;;;;;;2074307;28;20101;-83
2021/10/19 07:44:41;;;;;;;5.05;1.40;;;;;;;;;;2069511;28;20938;-81
2021/10/19 07:46:00;;;;;;;2.40;1.45;;;;;;;;;;2070827;28;20498;-81
2021/10/19 07:47:19;;;;;;;1.58;1.13;;;;;;;;;;2074001;28;20113;-81
2021/10/19 07:48:38;;;;;;;5.38;1.40;;;;;;;;;;2073467;28;20093;-82
2021/10/19 07:49:57;;;;;;;2.70;1.30;;;;;;;;;;2078241;28;20065;-84
2021/10/19 07:51:16;;;;;;;2.05;1.20;;;;;;;;;;2075779;28;20034;-83
2021/10/19 07:52:35;;;;;;;2.17;1.10;;;;;;;;;;2072497;28;20038;-85
2021/10/19 07:53:53;;;;;;;2.17;1.30;;;;;;;;;;2067345;28;20049;-83
2021/10/19 07:55:12;;;;;;;3.90;1.90;;;;;;;;;;2078187;28;20501;-83